Time;durP1;ratioP1;P1;durP2;ratioP2;P2;SDS_P1;SDS_P2;PMS_P1;PMS_P2;Temp;Humidity;BMP_temperature;BMP_pressure;BME280_temperature;BME280_humidity;BME280_pressure;Samples;Min_cycle;Max_cycle;Signal;HPM_P1;HPM_P2
2023/04/16 00:00:55;;;;;;;7.37;4.53;;;13.80;65.50;;;;;;5064166;28;21019;-87
2023/04/16 00:03:23;;;;;;;5.70;4.37;;;13.70;66.60;;;;;;5068150;28;20476;-86
2023/04/16 00:05:54;;;;;;;7.30;4.37;;;13.90;66.30;;;;;;5046860;28;20444;-85
2023/04/16 00:08:23;;;;;;;6.50;4.80;;;13.90;65.90;;;;;;5086958;27;20435;-86
2023/04/16 00:10:50;;;;;;;5.40;4.40;;;13.80;66.30;;;;;;5064231;28;20448;-86
2023/04/16 00:13:17;;;;;;;5.57;4.57;;;13.80;66.50;;;;;;5046274;28;20576;-86
2023/04/16 00:15:45;;;;;;;4.50;3.70;;;13.90;66.20;;;;;;5073079;28;20447;-86
2023/04/16 00:18:12;;;;;;;5.40;4.03;;;14.00;66.30;;;;;;5074376;28;20528;-86
2023/04/16 00:20:39;;;;;;;7.03;3.63;;;14.10;66.00;;;;;;5046481;27;20503;-86
2023/04/16 00:23:07;;;;;;;5.10;3.80;;;14.10;65.60;;;;;;5068562;28;20854;-85
2023/04/16 00:25:34;;;;;;;6.27;4.43;;;14.20;65.60;;;;;;5088429;28;20450;-87
2023/04/16 00:28:01;;;;;;;4.77;4.23;;;14.10;65.40;;;;;;5045284;28;20459;-86
2023/04/16 00:30:28;;;;;;;6.00;3.53;;;14.00;65.90;;;;;;5053891;28;20505;-86
2023/04/16 00:32:55;;;;;;;13.03;5.10;;;14.10;65.50;;;;;;5073410;28;20467;-86
2023/04/16 00:35:23;;;;;;;6.77;4.83;;;14.10;65.30;;;;;;5044236;28;20459;-88
2023/04/16 00:37:50;;;;;;;5.83;4.07;;;14.20;65.10;;;;;;5060994;28;20463;-86
2023/04/16 00:40:18;;;;;;;10.67;5.87;;;14.20;65.10;;;;;;5083917;27;20475;-86
2023/04/16 00:42:45;;;;;;;7.37;4.90;;;14.20;65.20;;;;;;5055512;28;20499;-86
2023/04/16 00:45:13;;;;;;;9.67;5.33;;;14.00;65.60;;;;;;5076503;28;20447;-87
2023/04/16 00:47:40;;;;;;;8.83;6.97;;;14.10;65.50;;;;;;5048097;28;20462;-85
2023/04/16 00:50:08;;;;;;;6.47;5.13;;;14.20;65.40;;;;;;5087895;27;20455;-86
2023/04/16 00:52:35;;;;;;;11.10;6.33;;;14.20;65.20;;;;;;5082235;28;21091;-86
2023/04/16 00:55:02;;;;;;;11.90;6.87;;;14.30;64.90;;;;;;5097524;27;20536;-86
2023/04/16 00:57:31;;;;;;;8.73;5.90;;;14.10;65.10;;;;;;5057866;28;20478;-86
2023/04/16 00:59:59;;;;;;;8.80;6.17;;;14.20;65.80;;;;;;5071338;28;20447;-85
2023/04/16 01:02:26;;;;;;;5.10;4.00;;;13.90;65.20;;;;;;5069235;28;20459;-86
2023/04/16 01:04:54;;;;;;;6.70;4.23;;;13.90;66.10;;;;;;5087041;27;20439;-87
2023/04/16 01:07:22;;;;;;;10.03;6.10;;;13.90;66.00;;;;;;5087914;27;20447;-87
2023/04/16 01:09:49;;;;;;;6.40;4.67;;;13.90;66.00;;;;;;5048454;28;20566;-85
2023/04/16 01:12:16;;;;;;;5.27;3.87;;;13.90;66.10;;;;;;5056913;28;20459;-85
2023/04/16 01:14:45;;;;;;;3.63;3.27;;;13.80;66.00;;;;;;5050366;28;20642;-86
2023/04/16 01:17:12;;;;;;;4.77;3.83;;;13.80;66.00;;;;;;5104730;27;20964;-86
2023/04/16 01:19:40;;;;;;;7.10;3.63;;;13.90;65.70;;;;;;5069881;28;20455;-86
2023/04/16 01:22:08;;;;;;;3.57;3.27;;;13.90;65.90;;;;;;5098868;28;20464;-86
2023/04/16 01:24:35;;;;;;;3.87;3.53;;;13.80;66.10;;;;;;5064257;28;20443;-87
2023/04/16 01:27:02;;;;;;;4.83;3.60;;;13.90;66.30;;;;;;5089266;28;20456;-86
2023/04/16 01:29:30;;;;;;;6.07;3.23;;;13.90;65.90;;;;;;5087354;28;22070;-86
2023/04/16 01:31:59;;;;;;;6.33;3.10;;;13.70;66.80;;;;;;5088689;27;21295;-86
2023/04/16 01:34:32;;;;;;;5.03;3.83;;;13.60;67.40;;;;;;5054850;28;20656;-86
2023/04/16 01:36:59;;;;;;;5.20;3.97;;;13.80;67.10;;;;;;5039560;28;20460;-86
2023/04/16 01:39:29;;;;;;;4.77;3.77;;;13.90;66.70;;;;;;5070279;28;20467;-86
2023/04/16 01:41:57;;;;;;;5.30;3.80;;;13.90;66.40;;;;;;5045377;28;20841;-86
2023/04/16 01:44:25;;;;;;;9.20;4.63;;;13.90;66.90;;;;;;5087248;28;20823;-86
2023/04/16 01:46:52;;;;;;;5.10;3.50;;;13.90;66.70;;;;;;5070362;28;20534;-86
2023/04/16 01:49:19;;;;;;;4.23;3.40;;;14.00;66.00;;;;;;5084583;28;20977;-86
2023/04/16 01:51:48;;;;;;;5.53;3.80;;;14.10;65.80;;;;;;5060919;28;20493;-86
2023/04/16 01:54:15;;;;;;;5.47;3.90;;;13.80;66.20;;;;;;5088889;28;20455;-86
2023/04/16 01:56:44;;;;;;;7.33;3.77;;;13.80;66.80;;;;;;5073351;28;20450;-85
2023/04/16 01:59:12;;;;;;;5.70;4.60;;;13.90;66.40;;;;;;5046042;28;21048;-85
2023/04/16 02:01:42;;;;;;;7.80;5.77;;;13.90;65.80;;;;;;5057118;28;20605;-86
2023/04/16 02:04:09;;;;;;;6.70;5.07;;;14.00;65.80;;;;;;5078461;28;21066;-86
2023/04/16 02:06:37;;;;;;;8.10;5.20;;;14.00;65.60;;;;;;5086560;28;20444;-86
2023/04/16 02:09:04;;;;;;;12.37;5.60;;;14.10;65.60;;;;;;5045375;28;21041;-86
2023/04/16 02:11:32;;;;;;;9.70;6.73;;;14.20;65.50;;;;;;5044549;28;20462;-86
2023/04/16 02:14:01;;;;;;;10.77;5.50;;;14.10;65.40;;;;;;5088137;28;20613;-85
2023/04/16 02:16:28;;;;;;;13.70;6.70;;;14.10;65.40;;;;;;5075753;28;20439;-86
2023/04/16 02:19:05;;;;;;;11.83;6.10;;;14.00;65.90;;;;;;5077252;28;20546;-86
2023/04/16 02:21:35;;;;;;;14.40;7.30;;;14.00;66.00;;;;;;5079717;28;21202;-86
2023/04/16 02:24:02;;;;;;;9.93;6.47;;;14.10;65.80;;;;;;5063841;28;20459;-86
2023/04/16 02:26:31;;;;;;;11.53;7.30;;;14.10;65.60;;;;;;5061485;28;20450;-86
2023/04/16 02:29:05;;;;;;;16.90;8.00;;;14.10;65.50;;;;;;5088389;28;20530;-86
2023/04/16 02:31:41;;;;;;;14.47;8.37;;;14.10;65.40;;;;;;5062855;28;20480;-86
2023/04/16 02:34:10;;;;;;;18.87;10.00;;;14.10;65.90;;;;;;5064166;28;20964;-86
2023/04/16 02:36:37;;;;;;;15.10;9.13;;;14.10;65.80;;;;;;5094188;28;20539;-86
2023/04/16 02:39:05;;;;;;;18.17;10.37;;;14.10;65.80;;;;;;5044166;28;20468;-86
2023/04/16 02:41:32;;;;;;;16.93;9.33;;;14.10;65.70;;;;;;5060050;28;20581;-86
2023/04/16 02:43:59;;;;;;;19.10;10.07;;;14.20;65.70;;;;;;5064096;28;20454;-86
2023/04/16 02:46:28;;;;;;;19.00;10.23;;;14.20;65.80;;;;;;5069165;28;20450;-85
2023/04/16 02:48:55;;;;;;;15.20;9.90;;;14.20;65.60;;;;;;5085440;28;21188;-87
2023/04/16 02:51:22;;;;;;;23.83;10.17;;;14.20;65.60;;;;;;5045915;28;20489;-87
2023/04/16 02:53:50;;;;;;;15.73;9.87;;;14.20;65.60;;;;;;5073699;28;20454;-86
2023/04/16 02:56:17;;;;;;;15.97;8.83;;;14.00;66.00;;;;;;5069300;28;20521;-86
2023/04/16 02:58:44;;;;;;;11.13;7.67;;;13.70;67.00;;;;;;5072424;28;21201;-85
2023/04/16 03:01:11;;;;;;;12.20;7.83;;;13.70;67.00;;;;;;5072062;28;20459;-86
2023/04/16 03:03:39;;;;;;;11.83;7.47;;;13.70;67.10;;;;;;5050156;28;20447;-86
2023/04/16 03:06:06;;;;;;;9.03;5.83;;;13.50;67.10;;;;;;5077195;28;20462;-87
2023/04/16 03:08:33;;;;;;;10.73;6.17;;;13.50;67.50;;;;;;5068584;28;20467;-86
2023/04/16 03:11:01;;;;;;;9.90;5.97;;;13.40;67.90;;;;;;5089670;28;20493;-86
2023/04/16 03:13:29;;;;;;;10.13;5.67;;;13.40;68.20;;;;;;5085751;28;20479;-86
2023/04/16 03:15:57;;;;;;;10.00;5.83;;;13.40;68.20;;;;;;5090425;28;20864;-85
2023/04/16 03:18:24;;;;;;;6.47;4.63;;;13.50;67.80;;;;;;5042891;28;20471;-86
2023/04/16 03:20:54;;;;;;;9.00;5.80;;;13.60;67.80;;;;;;5076040;28;20841;-87
2023/04/16 03:23:21;;;;;;;9.37;5.30;;;13.50;67.30;;;;;;5042918;28;20534;-86
2023/04/16 03:25:48;;;;;;;8.80;5.47;;;13.50;66.80;;;;;;5093630;27;20551;-87
2023/04/16 03:28:18;;;;;;;9.27;5.57;;;13.40;67.40;;;;;;5072235;28;20436;-87
2023/04/16 03:30:51;;;;;;;8.37;5.60;;;13.40;67.80;;;;;;5074728;28;20534;-86
2023/04/16 03:33:18;;;;;;;10.27;6.20;;;13.50;67.40;;;;;;5057491;28;20558;-86
2023/04/16 03:35:45;;;;;;;18.80;6.20;;;13.50;67.50;;;;;;5075837;27;20447;-87
2023/04/16 03:38:15;;;;;;;11.47;6.10;;;13.50;67.70;;;;;;5100222;27;20494;-85
2023/04/16 03:40:42;;;;;;;15.87;7.10;;;13.60;67.60;;;;;;5087437;27;20859;-87
2023/04/16 03:43:09;;;;;;;10.80;6.50;;;13.50;67.50;;;;;;5091853;28;20984;-86
2023/04/16 03:45:43;;;;;;;8.73;5.10;;;13.40;68.20;;;;;;5064304;28;20440;-87
2023/04/16 03:48:10;;;;;;;10.17;6.50;;;13.50;68.30;;;;;;5047799;28;20447;-87
2023/04/16 03:50:37;;;;;;;11.13;7.00;;;13.50;67.60;;;;;;5046614;27;20435;-86
2023/04/16 03:53:06;;;;;;;10.60;6.90;;;13.60;67.30;;;;;;5075484;28;20468;-86
2023/04/16 03:55:35;;;;;;;13.83;7.07;;;13.70;67.20;;;;;;5080976;28;20450;-86
2023/04/16 03:58:03;;;;;;;16.20;7.00;;;13.80;67.30;;;;;;5093293;27;20446;-87
2023/04/16 04:00:32;;;;;;;13.37;8.77;;;13.70;66.70;;;;;;5037259;28;20494;-87
2023/04/16 04:03:12;;;;;;;16.40;7.33;;;13.80;66.80;;;;;;5088303;28;20471;-87
2023/04/16 04:05:40;;;;;;;12.63;8.80;;;13.90;66.40;;;;;;5090983;28;20460;-86
2023/04/16 04:08:09;;;;;;;16.63;8.73;;;13.90;66.50;;;;;;5055671;28;20448;-86
2023/04/16 04:10:38;;;;;;;12.17;7.20;;;13.90;66.50;;;;;;5097742;27;20439;-87
2023/04/16 04:13:07;;;;;;;16.40;8.00;;;13.90;66.10;;;;;;5041787;28;20669;-86
2023/04/16 04:15:35;;;;;;;18.20;9.03;;;13.80;66.20;;;;;;5038320;28;21230;-86
2023/04/16 04:18:02;;;;;;;14.20;8.75;;;13.70;66.70;;;;;;5060433;28;20805;-86
2023/04/16 04:20:29;;;;;;;14.60;8.20;;;13.70;66.60;;;;;;5089687;28;20455;-85
2023/04/16 04:22:56;;;;;;;16.00;8.03;;;13.80;66.50;;;;;;5107822;27;21083;-87
2023/04/16 04:25:26;;;;;;;12.80;8.03;;;13.70;66.90;;;;;;5090680;27;21378;-86
2023/04/16 04:27:54;;;;;;;13.43;7.03;;;13.70;66.90;;;;;;5063435;28;20856;-87
2023/04/16 04:30:21;;;;;;;13.80;8.50;;;13.70;66.90;;;;;;5052045;28;20439;-87
2023/04/16 04:32:48;;;;;;;13.30;8.10;;;13.80;66.20;;;;;;5073544;28;20480;-86
2023/04/16 04:35:16;;;;;;;15.70;9.10;;;13.90;66.30;;;;;;5064727;28;20530;-87
2023/04/16 04:37:44;;;;;;;15.20;9.17;;;13.80;66.40;;;;;;5090923;28;20491;-86
2023/04/16 04:40:18;;;;;;;11.50;7.53;;;13.90;66.00;;;;;;5042082;28;21012;-87
2023/04/16 04:42:45;;;;;;;12.27;8.37;;;13.90;65.80;;;;;;5060181;28;20744;-87
2023/04/16 04:45:14;;;;;;;17.97;9.20;;;13.90;65.70;;;;;;5089075;28;20480;-85
2023/04/16 04:47:42;;;;;;;13.20;8.57;;;13.90;65.70;;;;;;5043399;28;20542;-86
2023/04/16 04:50:09;;;;;;;14.60;9.00;;;13.80;65.90;;;;;;5057593;28;20540;-87
2023/04/16 04:52:37;;;;;;;16.87;9.23;;;13.90;65.80;;;;;;5073106;27;21234;-86
2023/04/16 04:55:04;;;;;;;15.07;8.60;;;14.00;65.60;;;;;;5062061;28;20463;-87
2023/04/16 04:57:31;;;;;;;15.43;9.80;;;13.90;66.10;;;;;;5078108;28;20531;-85
2023/04/16 04:59:58;;;;;;;16.13;9.30;;;13.80;66.30;;;;;;5078858;28;20495;-85
2023/04/16 05:02:29;;;;;;;15.00;8.70;;;13.80;66.30;;;;;;5070904;28;20475;-87
2023/04/16 05:04:56;;;;;;;15.67;9.07;;;13.60;66.30;;;;;;5092075;28;20454;-86
2023/04/16 05:07:23;;;;;;;14.87;9.30;;;13.60;66.60;;;;;;5104120;27;20900;-86
2023/04/16 05:09:50;;;;;;;18.40;10.33;;;13.60;66.70;;;;;;5078711;28;20545;-86
2023/04/16 05:12:17;;;;;;;12.80;9.50;;;13.70;66.70;;;;;;5061266;28;21198;-86
2023/04/16 05:14:44;;;;;;;18.30;9.20;;;13.80;66.50;;;;;;5089414;28;21157;-86
2023/04/16 05:17:11;;;;;;;15.03;8.97;;;13.80;66.50;;;;;;5073604;28;20579;-85
2023/04/16 05:19:40;;;;;;;48.47;33.33;;;13.80;66.50;;;;;;5086447;27;20867;-86
2023/04/16 05:22:07;;;;;;;20.27;13.07;;;13.90;66.30;;;;;;5053264;28;20558;-87
2023/04/16 05:24:35;;;;;;;21.07;11.60;;;13.90;66.10;;;;;;5083389;28;20452;-88
2023/04/16 05:27:02;;;;;;;27.57;19.10;;;14.00;65.80;;;;;;5036350;28;20563;-86
2023/04/16 05:29:30;;;;;;;22.00;14.30;;;14.00;65.70;;;;;;5046548;28;20534;-89
2023/04/16 05:31:57;;;;;;;16.50;10.50;;;14.00;66.00;;;;;;5103086;27;20472;-86
2023/04/16 05:34:25;;;;;;;19.63;12.60;;;14.00;66.10;;;;;;5071855;28;20481;-87
2023/04/16 05:36:54;;;;;;;15.43;10.03;;;14.00;66.00;;;;;;5087447;28;20533;-86
2023/04/16 05:39:21;;;;;;;15.10;11.07;;;13.90;66.00;;;;;;5085780;28;20555;-86
2023/04/16 05:41:49;;;;;;;24.10;11.40;;;13.80;66.50;;;;;;5067368;27;20470;-85
2023/04/16 05:44:16;;;;;;;23.30;11.13;;;13.80;67.60;;;;;;5084844;28;20447;-85
2023/04/16 05:46:43;;;;;;;33.73;12.93;;;13.80;66.80;;;;;;5062629;28;20459;-86
2023/04/16 05:49:11;;;;;;;19.53;11.40;;;13.80;67.00;;;;;;5068192;28;20454;-85
2023/04/16 05:51:38;;;;;;;18.50;11.80;;;13.80;66.50;;;;;;5082396;28;20562;-86
2023/04/16 05:54:06;;;;;;;20.80;12.70;;;13.90;66.70;;;;;;5056300;28;20454;-86
2023/04/16 05:56:34;;;;;;;21.13;11.20;;;13.80;66.40;;;;;;5051684;28;20972;-84
2023/04/16 05:59:01;;;;;;;20.20;12.33;;;13.80;66.30;;;;;;5048152;28;20460;-87
2023/04/16 06:01:28;;;;;;;27.00;11.60;;;13.80;66.70;;;;;;5040210;28;20443;-87
2023/04/16 06:03:55;;;;;;;24.20;13.00;;;13.70;66.70;;;;;;5089950;28;20557;-86
2023/04/16 06:06:22;;;;;;;23.00;14.37;;;13.60;67.30;;;;;;5090583;28;20455;-85
2023/04/16 06:08:49;;;;;;;22.70;13.50;;;13.70;67.50;;;;;;5052790;28;20475;-86
2023/04/16 06:11:18;;;;;;;20.83;11.70;;;13.80;67.40;;;;;;5062272;28;20455;-85
2023/04/16 06:13:45;;;;;;;18.07;12.20;;;13.90;67.00;;;;;;5075655;28;20448;-87
2023/04/16 06:16:13;;;;;;;22.00;12.90;;;14.00;66.60;;;;;;5077124;28;20451;-86
2023/04/16 06:18:41;;;;;;;20.27;10.83;;;13.80;66.90;;;;;;5101215;27;20455;-86
2023/04/16 06:21:08;;;;;;;18.30;11.13;;;13.80;66.60;;;;;;5055141;28;20936;-86
2023/04/16 06:23:35;;;;;;;22.90;13.50;;;13.70;67.00;;;;;;5086838;28;20452;-86
2023/04/16 06:26:02;;;;;;;19.20;12.10;;;13.80;67.10;;;;;;5043134;28;20455;-87
2023/04/16 06:28:31;;;;;;;16.73;10.87;;;13.80;66.70;;;;;;5088444;28;20456;-86
2023/04/16 06:30:59;;;;;;;19.67;11.87;;;13.60;67.50;;;;;;5073049;28;20452;-87
2023/04/16 06:33:26;;;;;;;20.30;12.40;;;13.70;67.60;;;;;;5104573;27;21438;-88
2023/04/16 06:35:53;;;;;;;22.23;12.00;;;13.80;67.30;;;;;;5084550;28;20467;-87
2023/04/16 06:38:20;;;;;;;22.27;13.23;;;13.90;66.80;;;;;;5096246;28;20875;-87
2023/04/16 06:40:49;;;;;;;21.33;12.40;;;13.90;66.90;;;;;;5045582;28;20482;-87
2023/04/16 06:43:16;;;;;;;25.83;13.43;;;13.90;67.30;;;;;;5088424;28;20992;-88
2023/04/16 06:45:46;;;;;;;25.30;11.20;;;13.90;67.30;;;;;;5046459;28;20538;-85
2023/04/16 06:48:13;;;;;;;21.93;11.60;;;13.80;67.50;;;;;;5069602;28;20462;-87
2023/04/16 06:50:41;;;;;;;21.37;10.73;;;14.00;67.10;;;;;;5085209;28;20453;-87
2023/04/16 06:53:08;;;;;;;20.00;10.97;;;14.00;67.10;;;;;;5105994;27;20887;-87
2023/04/16 06:55:35;;;;;;;19.33;10.37;;;14.10;66.70;;;;;;5083985;28;20478;-86
2023/04/16 06:58:02;;;;;;;16.23;8.90;;;14.10;66.30;;;;;;5075298;28;20450;-87
2023/04/16 07:00:29;;;;;;;19.47;13.20;;;14.10;66.30;;;;;;5091430;28;20471;-86
2023/04/16 07:02:59;;;;;;;14.87;10.63;;;14.10;66.50;;;;;;5081506;28;21438;-86
2023/04/16 07:05:27;;;;;;;19.23;10.40;;;14.20;66.60;;;;;;5051277;28;20439;-87
2023/04/16 07:07:56;;;;;;;22.80;11.00;;;14.10;67.40;;;;;;5091218;28;21030;-88
2023/04/16 07:10:23;;;;;;;14.70;9.17;;;14.10;67.30;;;;;;5062479;28;20459;-86
2023/04/16 07:12:50;;;;;;;12.83;9.10;;;14.30;67.00;;;;;;5083420;28;20645;-87
2023/04/16 07:15:17;;;;;;;13.60;10.47;;;14.30;66.70;;;;;;5068302;28;20967;-86
2023/04/16 07:17:44;;;;;;;18.10;10.53;;;14.30;66.00;;;;;;5086607;27;20818;-87
2023/04/16 07:20:14;;;;;;;11.23;7.63;;;14.10;66.40;;;;;;5083285;28;20561;-86
2023/04/16 07:22:42;;;;;;;14.10;8.93;;;13.80;65.80;;;;;;5070529;28;20567;-87
2023/04/16 07:25:09;;;;;;;15.53;9.20;;;13.70;67.10;;;;;;5075334;28;20459;-87
2023/04/16 07:27:37;;;;;;;16.70;10.00;;;13.90;67.60;;;;;;5072630;28;20447;-87
2023/04/16 07:30:05;;;;;;;19.53;10.27;;;13.80;67.00;;;;;;5092174;27;20475;-87
2023/04/16 07:32:32;;;;;;;20.57;10.40;;;14.00;67.40;;;;;;5078842;28;20817;-88
2023/04/16 07:34:59;;;;;;;12.30;7.97;;;14.10;67.30;;;;;;5070544;27;20947;-87
2023/04/16 07:37:28;;;;;;;14.20;9.20;;;14.00;66.50;;;;;;5089776;27;20716;-88
2023/04/16 07:39:56;;;;;;;16.63;9.80;;;14.10;66.80;;;;;;5090996;27;20487;-87
2023/04/16 07:42:23;;;;;;;12.57;9.03;;;14.30;66.80;;;;;;5073317;28;20984;-87
2023/04/16 07:44:50;;;;;;;14.30;9.20;;;14.30;66.30;;;;;;5072039;28;20459;-88
2023/04/16 07:47:17;;;;;;;12.40;7.87;;;14.20;66.00;;;;;;5071412;28;20451;-87
2023/04/16 07:49:44;;;;;;;15.33;8.80;;;14.00;66.10;;;;;;5074579;27;20971;-88
2023/04/16 07:52:11;;;;;;;11.83;8.00;;;14.10;66.20;;;;;;5071632;28;20820;-88
2023/04/16 07:54:40;;;;;;;23.27;12.47;;;14.20;66.50;;;;;;5086437;28;20485;-88
2023/04/16 07:57:07;;;;;;;16.90;6.80;;;14.30;66.00;;;;;;5090079;28;20860;-88
2023/04/16 07:59:34;;;;;;;17.40;8.37;;;14.10;65.80;;;;;;5060071;28;20467;-87
2023/04/16 08:02:01;;;;;;;7.47;6.40;;;13.70;66.20;;;;;;5087408;28;20515;-87
2023/04/16 08:04:28;;;;;;;11.00;7.30;;;13.70;67.10;;;;;;5088085;28;20452;-87
2023/04/16 08:06:55;;;;;;;10.03;6.87;;;13.70;67.40;;;;;;5088569;28;20444;-87
2023/04/16 08:09:23;;;;;;;9.43;6.67;;;13.60;66.30;;;;;;5066181;28;20451;-86
2023/04/16 08:11:52;;;;;;;7.97;5.33;;;13.40;67.50;;;;;;5090920;27;21002;-87
2023/04/16 08:14:19;;;;;;;10.43;6.57;;;13.50;68.30;;;;;;5070693;28;20936;-87
2023/04/16 08:16:46;;;;;;;10.43;7.57;;;13.70;67.90;;;;;;5068535;28;20486;-87
2023/04/16 08:19:13;;;;;;;12.60;7.27;;;13.80;67.90;;;;;;5085743;28;20968;-87
2023/04/16 08:21:40;;;;;;;7.43;6.00;;;14.00;67.80;;;;;;5055783;28;20482;-86
2023/04/16 08:24:07;;;;;;;9.23;5.90;;;14.20;67.20;;;;;;5051282;28;20561;-87
2023/04/16 08:26:34;;;;;;;7.13;5.60;;;14.20;66.60;;;;;;5069983;28;20983;-86
2023/04/16 08:29:03;;;;;;;7.00;5.07;;;14.20;67.00;;;;;;5072052;28;20466;-88
2023/04/16 08:31:30;;;;;;;6.70;5.47;;;14.10;66.50;;;;;;5062088;28;20562;-87
2023/04/16 08:33:57;;;;;;;6.97;4.57;;;14.10;66.40;;;;;;5068652;28;20454;-87
2023/04/16 08:36:24;;;;;;;9.73;6.03;;;14.10;65.90;;;;;;5068323;28;20455;-88
2023/04/16 08:38:51;;;;;;;7.20;5.83;;;14.10;66.40;;;;;;5089919;27;20451;-87
2023/04/16 08:41:21;;;;;;;6.30;5.70;;;14.20;67.20;;;;;;5089354;28;20536;-89
2023/04/16 08:43:50;;;;;;;7.80;5.90;;;14.10;66.30;;;;;;5089524;28;20811;-87
2023/04/16 08:46:22;;;;;;;18.13;8.50;;;14.20;66.80;;;;;;5044872;28;20883;-87
2023/04/16 08:48:53;;;;;;;11.13;6.70;;;14.30;67.10;;;;;;5071142;28;20539;-88
2023/04/16 08:51:22;;;;;;;8.17;5.93;;;14.50;67.00;;;;;;5046373;28;20447;-87
2023/04/16 08:53:52;;;;;;;8.17;6.53;;;14.50;66.90;;;;;;5063600;27;20532;-87
2023/04/16 08:56:21;;;;;;;10.97;8.20;;;14.50;66.80;;;;;;5053982;28;20458;-87
2023/04/16 08:58:50;;;;;;;8.37;7.07;;;14.50;66.80;;;;;;5080053;28;20875;-88
2023/04/16 09:01:19;;;;;;;9.13;6.47;;;14.60;66.80;;;;;;5057777;28;20495;-88
2023/04/16 09:03:48;;;;;;;10.90;8.40;;;14.60;66.20;;;;;;5055757;27;20534;-88
2023/04/16 09:06:15;;;;;;;6.93;5.20;;;14.60;66.10;;;;;;5077281;28;20446;-86
2023/04/16 09:08:44;;;;;;;7.07;5.57;;;14.60;66.10;;;;;;5035884;28;20443;-86
2023/04/16 09:11:13;;;;;;;5.23;4.70;;;14.40;65.40;;;;;;5073624;28;20450;-86
2023/04/16 09:13:40;;;;;;;5.60;4.20;;;14.20;66.10;;;;;;5072350;28;20467;-87
2023/04/16 09:16:08;;;;;;;6.40;4.10;;;14.20;67.30;;;;;;5089507;27;20446;-87
2023/04/16 09:18:36;;;;;;;4.00;3.50;;;14.20;67.20;;;;;;5090821;27;20507;-86
2023/04/16 09:21:04;;;;;;;3.87;3.57;;;14.30;66.00;;;;;;5087240;28;20462;-87
2023/04/16 09:23:31;;;;;;;6.80;4.50;;;14.30;66.70;;;;;;5079384;28;20505;-87
2023/04/16 09:25:59;;;;;;;4.57;4.17;;;14.30;67.30;;;;;;5072161;28;20447;-86
2023/04/16 09:28:39;;;;;;;7.23;5.20;;;14.40;67.30;;;;;;5054147;28;20464;-87
2023/04/16 09:31:11;;;;;;;6.43;5.50;;;14.40;67.20;;;;;;5088840;28;20440;-86
2023/04/16 09:33:39;;;;;;;7.60;5.30;;;14.40;66.30;;;;;;5073205;28;20957;-86
2023/04/16 09:36:07;;;;;;;4.17;3.77;;;14.40;66.40;;;;;;5086020;28;20463;-86
2023/04/16 09:38:47;;;;;;;4.33;3.53;;;14.30;67.10;;;;;;5089438;28;20446;-87
2023/04/16 09:41:15;;;;;;;5.03;4.17;;;14.30;67.10;;;;;;5073054;28;20479;-87
2023/04/16 09:43:53;;;;;;;5.67;4.10;;;14.40;66.90;;;;;;5059311;28;20454;-87
2023/04/16 09:46:20;;;;;;;5.53;3.77;;;14.40;66.40;;;;;;5069144;28;20477;-86
2023/04/16 09:48:48;;;;;;;6.03;4.03;;;14.40;66.90;;;;;;5101647;27;20513;-88
2023/04/16 09:51:15;;;;;;;5.73;3.90;;;14.50;67.10;;;;;;5103196;27;20444;-86
2023/04/16 09:53:42;;;;;;;4.07;3.67;;;14.60;66.80;;;;;;5070685;28;20466;-88
2023/04/16 09:56:10;;;;;;;28.60;17.20;;;14.70;66.40;;;;;;5079536;28;20453;-88
2023/04/16 09:58:37;;;;;;;10.53;8.80;;;14.80;66.80;;;;;;5089281;28;20508;-87
2023/04/16 10:01:07;;;;;;;9.40;7.17;;;14.90;66.40;;;;;;5089699;28;20477;-87
2023/04/16 10:03:37;;;;;;;6.43;4.90;;;14.90;66.10;;;;;;5103715;27;20481;-88
2023/04/16 10:06:16;;;;;;;7.97;7.27;;;14.90;66.00;;;;;;5062187;28;20483;-87
2023/04/16 10:08:44;;;;;;;9.03;4.70;;;15.00;66.20;;;;;;5060974;28;20455;-87
2023/04/16 10:11:11;;;;;;;4.47;4.00;;;15.10;66.30;;;;;;5069413;28;20432;-86
2023/04/16 10:13:38;;;;;;;4.87;4.10;;;15.20;66.20;;;;;;5074256;28;21071;-87
2023/04/16 10:16:07;;;;;;;7.57;6.87;;;15.20;65.90;;;;;;5089005;28;20446;-87
2023/04/16 10:18:37;;;;;;;5.63;4.47;;;15.20;66.10;;;;;;5088324;28;20531;-88
2023/04/16 10:21:04;;;;;;;8.63;4.50;;;15.20;65.50;;;;;;5108147;27;20474;-88
2023/04/16 10:23:34;;;;;;;8.57;5.53;;;15.00;65.10;;;;;;5085858;28;20559;-86
2023/04/16 10:26:02;;;;;;;10.50;6.90;;;15.00;65.70;;;;;;5057309;28;20826;-88
2023/04/16 10:28:29;;;;;;;10.40;8.03;;;15.00;65.80;;;;;;5090519;28;20547;-88
2023/04/16 10:30:57;;;;;;;17.80;9.53;;;15.10;66.30;;;;;;5093371;28;20439;-88
2023/04/16 10:33:27;;;;;;;8.73;7.10;;;15.20;66.00;;;;;;5060967;28;21027;-86
2023/04/16 10:36:08;;;;;;;7.47;6.07;;;15.30;66.00;;;;;;5075898;27;20460;-88
2023/04/16 10:38:39;;;;;;;12.73;9.70;;;15.50;66.10;;;;;;5064079;28;20473;-87
2023/04/16 10:41:07;;;;;;;7.63;6.37;;;15.40;65.40;;;;;;5083177;28;20637;-87
2023/04/16 10:43:40;;;;;;;7.27;6.27;;;15.20;65.10;;;;;;5082069;28;20472;-86
2023/04/16 10:46:21;;;;;;;8.17;7.03;;;15.30;65.70;;;;;;5066950;28;20435;-87
2023/04/16 10:48:50;;;;;;;8.40;6.17;;;15.20;66.10;;;;;;5088202;28;20504;-86
2023/04/16 10:51:32;;;;;;;9.37;7.50;;;15.00;66.40;;;;;;5055197;28;20463;-86
2023/04/16 10:54:20;;;;;;;8.10;5.97;;;15.00;66.80;;;;;;5078380;28;20446;-87
2023/04/16 10:56:47;;;;;;;10.10;8.07;;;14.90;66.10;;;;;;5071041;28;20450;-87
2023/04/16 10:59:19;;;;;;;10.43;6.47;;;15.10;67.00;;;;;;5082746;28;20451;-87
2023/04/16 11:01:48;;;;;;;10.87;8.13;;;15.10;66.70;;;;;;5049677;28;20489;-87
2023/04/16 11:04:35;;;;;;;7.87;6.00;;;15.20;66.70;;;;;;5071561;28;20450;-87
2023/04/16 11:07:07;;;;;;;6.27;5.53;;;15.00;66.20;;;;;;5058770;28;20438;-87
2023/04/16 11:09:53;;;;;;;7.27;6.10;;;14.70;66.70;;;;;;5110497;27;20449;-88
2023/04/16 11:12:22;;;;;;;10.13;7.60;;;14.80;67.80;;;;;;5060668;28;20546;-88
2023/04/16 11:14:51;;;;;;;7.90;6.00;;;15.00;68.00;;;;;;5087961;28;21159;-88
2023/04/16 11:17:19;;;;;;;14.07;8.40;;;14.90;66.70;;;;;;5067679;28;20448;-86
2023/04/16 11:19:46;;;;;;;8.13;6.27;;;15.00;67.40;;;;;;5051496;28;21269;-88
2023/04/16 11:22:16;;;;;;;6.23;5.60;;;15.10;67.10;;;;;;5094292;28;20478;-88
2023/04/16 11:24:45;;;;;;;9.37;7.07;;;15.00;65.90;;;;;;5076749;28;20471;-87
2023/04/16 11:27:14;;;;;;;10.50;6.60;;;14.90;67.50;;;;;;5061031;28;20546;-86
2023/04/16 11:29:41;;;;;;;11.10;8.50;;;14.90;67.40;;;;;;5059387;28;20812;-87
2023/04/16 11:32:08;;;;;;;9.47;7.20;;;14.80;67.30;;;;;;5110331;27;20474;-89
2023/04/16 11:34:43;;;;;;;8.80;6.83;;;14.90;67.70;;;;;;5049967;28;20451;-87
2023/04/16 11:37:10;;;;;;;8.37;6.10;;;15.00;67.30;;;;;;5046038;28;20963;-88
2023/04/16 11:39:49;;;;;;;8.03;6.50;;;15.00;66.70;;;;;;5081628;28;20443;-88
2023/04/16 11:42:21;;;;;;;6.97;6.20;;;14.90;66.50;;;;;;5068362;28;20502;-88
2023/04/16 11:44:53;;;;;;;10.87;7.30;;;14.80;67.40;;;;;;5042263;28;20431;-88
2023/04/16 11:47:20;;;;;;;10.33;7.83;;;14.80;66.70;;;;;;5111837;27;20463;-88
2023/04/16 11:49:47;;;;;;;10.60;6.80;;;14.80;67.10;;;;;;5078100;28;20546;-87
2023/04/16 11:52:24;;;;;;;9.20;7.27;;;14.90;67.30;;;;;;5068414;28;21321;-88
2023/04/16 11:54:54;;;;;;;8.90;6.63;;;15.00;66.70;;;;;;5067586;28;21140;-87
2023/04/16 11:57:25;;;;;;;12.97;7.97;;;15.00;65.50;;;;;;5111845;27;20444;-87
2023/04/16 11:59:53;;;;;;;11.17;8.50;;;15.10;66.20;;;;;;5058618;28;20447;-88
2023/04/16 12:02:35;;;;;;;10.10;7.17;;;14.90;67.20;;;;;;5051988;28;20478;-87
2023/04/16 12:05:03;;;;;;;9.40;6.90;;;14.80;66.30;;;;;;5076828;28;20456;-88
2023/04/16 12:07:30;;;;;;;11.03;6.70;;;14.70;67.10;;;;;;5079549;28;20479;-86
2023/04/16 12:10:08;;;;;;;9.00;7.17;;;14.90;67.70;;;;;;5084130;27;20443;-87
2023/04/16 12:12:35;;;;;;;9.80;6.60;;;14.90;66.70;;;;;;5044593;28;20905;-87
2023/04/16 12:15:03;;;;;;;9.60;8.13;;;15.00;65.80;;;;;;5090774;27;20501;-88
2023/04/16 12:17:31;;;;;;;8.47;6.67;;;15.20;66.70;;;;;;5074918;28;20444;-88
2023/04/16 12:20:00;;;;;;;7.60;6.50;;;15.20;66.00;;;;;;5063415;28;20453;-87
2023/04/16 12:22:33;;;;;;;9.23;6.70;;;15.20;66.20;;;;;;5071989;28;20471;-87
2023/04/16 12:25:01;;;;;;;8.67;7.13;;;15.10;65.20;;;;;;5064512;27;20483;-88
2023/04/16 12:27:44;;;;;;;14.00;9.00;;;15.10;66.20;;;;;;5108083;27;20439;-88
2023/04/16 12:30:12;;;;;;;8.30;6.10;;;15.20;65.70;;;;;;5109534;27;20482;-87
2023/04/16 12:32:40;;;;;;;14.33;10.10;;;15.10;65.40;;;;;;5061231;28;20534;-88
2023/04/16 12:35:08;;;;;;;23.10;12.97;;;15.00;65.70;;;;;;5109849;27;20427;-88
2023/04/16 12:37:35;;;;;;;18.43;10.87;;;15.10;65.40;;;;;;5065273;28;20443;-88
2023/04/16 12:40:03;;;;;;;10.80;7.93;;;15.20;65.30;;;;;;5081476;28;20566;-88
2023/04/16 12:42:34;;;;;;;11.33;7.97;;;15.00;65.00;;;;;;5077708;28;20460;-89
2023/04/16 12:45:04;;;;;;;10.00;8.40;;;15.10;66.40;;;;;;5074691;28;20454;-89